Time;durP1;ratioP1;P1;durP2;ratioP2;P2;SDS_P1;SDS_P2;PMS_P1;PMS_P2;Temp;Humidity;BMP_temperature;BMP_pressure;BME280_temperature;BME280_humidity;BME280_pressure;Samples;Min_cycle;Max_cycle;Signal;HPM_P1;HPM_P2
2022/05/24 00:02:07;;;;;;;8.27;6.20;;;14.00;99.90;;;;;;5050839;28;20471;-69
2022/05/24 00:04:32;;;;;;;9.05;5.78;;;14.00;99.90;;;;;;5051134;28;20040;-69
2022/05/24 00:06:59;;;;;;;9.52;6.18;;;13.90;99.90;;;;;;5050899;28;20505;-69
2022/05/24 00:09:25;;;;;;;9.30;6.28;;;13.90;99.90;;;;;;5049805;28;20048;-69
2022/05/24 00:11:51;;;;;;;10.05;6.50;;;13.80;99.90;;;;;;5051757;28;20041;-69
2022/05/24 00:15:19;;;;;;;13.65;7.55;;;13.90;99.90;;;;;;5054745;28;20080;-69
2022/05/24 00:17:03;;;;;;;9.90;7.43;;;13.80;99.90;;;;;;5054346;28;20428;-69
2022/05/24 00:19:29;;;;;;;12.32;7.63;;;13.80;99.90;;;;;;5053501;28;20056;-69
2022/05/24 00:21:54;;;;;;;12.25;8.55;;;13.80;99.90;;;;;;5054292;28;20604;-69
2022/05/24 00:24:21;;;;;;;10.60;7.80;;;13.70;99.90;;;;;;5054447;28;20482;-69
2022/05/24 00:26:47;;;;;;;10.88;7.03;;;13.70;99.90;;;;;;5054371;28;20052;-69
2022/05/24 00:29:13;;;;;;;11.70;8.30;;;13.70;99.90;;;;;;5053053;28;20068;-69
2022/05/24 00:31:39;;;;;;;12.93;8.02;;;13.70;99.90;;;;;;5053955;28;20084;-69
2022/05/24 00:34:04;;;;;;;14.77;8.77;;;13.70;99.90;;;;;;5052877;28;20052;-69
2022/05/24 00:36:30;;;;;;;11.57;8.43;;;13.60;99.90;;;;;;5052806;28;20037;-69
2022/05/24 00:38:55;;;;;;;12.93;7.70;;;13.70;99.90;;;;;;5054309;28;20044;-69
2022/05/24 00:41:41;;;;;;;12.95;8.48;;;13.70;99.90;;;;;;5053801;28;20084;-69
2022/05/24 00:44:24;;;;;;;9.73;7.15;;;13.70;99.90;;;;;;5054108;28;20048;-69
2022/05/24 00:47:01;;;;;;;11.43;7.00;;;13.70;99.90;;;;;;5054185;28;20037;-69
2022/05/24 00:49:35;;;;;;;13.25;7.93;;;13.70;99.90;;;;;;5052586;28;20036;-69
2022/05/24 00:52:14;;;;;;;15.23;9.63;;;13.70;99.90;;;;;;5053760;28;20040;-69
2022/05/24 00:54:44;;;;;;;13.00;9.65;;;13.70;99.90;;;;;;5052601;28;20091;-69
2022/05/24 00:57:36;;;;;;;13.55;9.50;;;13.60;99.90;;;;;;5053848;28;20045;-69
2022/05/24 01:00:13;;;;;;;11.93;9.18;;;13.60;99.90;;;;;;5053332;28;20551;-69
2022/05/24 01:02:41;;;;;;;11.85;7.75;;;13.50;99.90;;;;;;5053528;28;20041;-69
2022/05/24 01:05:10;;;;;;;10.80;7.88;;;13.50;99.90;;;;;;5052367;28;20040;-69
2022/05/24 01:07:37;;;;;;;13.23;7.47;;;13.40;99.90;;;;;;5053695;28;20039;-69
2022/05/24 01:10:29;;;;;;;12.93;8.75;;;13.50;99.90;;;;;;5053414;28;20056;-69
2022/05/24 01:13:12;;;;;;;14.02;8.77;;;13.40;99.90;;;;;;5052283;28;20051;-69
2022/05/24 01:15:38;;;;;;;10.60;7.88;;;13.40;99.90;;;;;;5053435;28;20045;-69
2022/05/24 01:18:05;;;;;;;11.45;7.43;;;13.30;99.90;;;;;;5052132;28;20186;-69
2022/05/24 01:20:30;;;;;;;12.00;8.48;;;13.20;99.90;;;;;;5053289;28;20037;-69
2022/05/24 01:23:17;;;;;;;12.05;8.07;;;13.20;99.90;;;;;;5052638;28;20047;-69
2022/05/24 01:25:56;;;;;;;11.15;8.38;;;13.10;99.90;;;;;;5053221;28;20060;-71
2022/05/24 01:28:57;;;;;;;13.10;7.80;;;13.00;99.90;;;;;;5051877;28;20112;-68
2022/05/24 01:31:24;;;;;;;11.73;7.95;;;13.10;99.90;;;;;;5051843;28;20049;-69
2022/05/24 01:36:39;;;;;;;8.90;7.68;;;13.10;99.90;;;;;;5052834;28;20136;-68
2022/05/24 01:39:08;;;;;;;9.95;7.72;;;13.00;99.90;;;;;;5051977;28;20150;-69
2022/05/24 01:41:44;;;;;;;12.55;8.57;;;13.10;99.90;;;;;;5052636;28;20487;-69
2022/05/24 01:44:12;;;;;;;10.32;8.40;;;13.10;99.90;;;;;;5052958;28;20442;-69
2022/05/24 01:46:43;;;;;;;13.35;8.18;;;13.00;99.90;;;;;;5052798;28;20048;-68
2022/05/24 01:49:25;;;;;;;11.52;8.20;;;13.10;99.90;;;;;;5053017;28;20051;-68
2022/05/24 01:52:05;;;;;;;15.80;8.83;;;13.00;99.90;;;;;;5052739;28;20170;-68
2022/05/24 01:54:35;;;;;;;13.98;8.75;;;13.00;99.90;;;;;;5052803;28;20044;-68
2022/05/24 01:57:10;;;;;;;12.45;7.65;;;13.10;99.90;;;;;;5052625;28;20041;-68
2022/05/24 01:59:38;;;;;;;11.77;8.00;;;13.00;99.90;;;;;;5052567;28;20044;-68
2022/05/24 02:02:04;;;;;;;11.25;8.45;;;13.10;99.90;;;;;;5051176;28;20037;-68
2022/05/24 02:04:32;;;;;;;12.55;7.40;;;13.10;99.90;;;;;;5051349;28;20044;-68
2022/05/24 02:07:20;;;;;;;10.85;8.10;;;13.10;99.90;;;;;;5051195;28;20041;-68
2022/05/24 02:09:52;;;;;;;13.10;8.35;;;13.00;99.90;;;;;;5050303;28;20052;-68
2022/05/24 02:12:32;;;;;;;12.30;8.38;;;13.00;99.90;;;;;;5051060;28;20094;-69
2022/05/24 02:15:02;;;;;;;10.00;8.10;;;12.90;99.90;;;;;;5052348;28;20040;-68
2022/05/24 02:17:39;;;;;;;13.05;7.65;;;13.00;99.90;;;;;;5052236;28;20037;-68
2022/05/24 02:20:07;;;;;;;12.23;7.45;;;13.00;99.90;;;;;;5043477;28;20487;-68
2022/05/24 02:22:32;;;;;;;9.73;7.28;;;13.00;99.90;;;;;;5052351;28;20048;-68
2022/05/24 02:25:04;;;;;;;9.73;7.30;;;13.00;99.90;;;;;;5052314;28;20040;-68
2022/05/24 02:27:29;;;;;;;12.52;7.82;;;13.00;99.90;;;;;;5051046;28;20067;-68
2022/05/24 02:29:56;;;;;;;9.32;6.90;;;13.00;99.90;;;;;;5051893;28;20490;-68
2022/05/24 02:32:22;;;;;;;12.75;7.95;;;13.00;99.90;;;;;;5052053;28;20455;-68
2022/05/24 02:34:47;;;;;;;9.38;7.60;;;13.00;99.90;;;;;;5051420;28;20049;-68
2022/05/24 02:37:13;;;;;;;14.63;8.00;;;13.00;99.90;;;;;;5051788;28;20037;-68
2022/05/24 02:42:23;;;;;;;15.18;8.35;;;13.10;99.90;;;;;;5051961;28;20053;-68
2022/05/24 02:44:49;;;;;;;13.55;7.72;;;13.10;99.90;;;;;;5034001;28;20116;-68
2022/05/24 02:47:15;;;;;;;11.07;8.18;;;13.20;99.90;;;;;;5051708;28;20037;-68
2022/05/24 02:49:41;;;;;;;12.68;8.15;;;13.20;99.90;;;;;;5050538;28;20073;-68
2022/05/24 02:52:07;;;;;;;13.70;8.45;;;13.20;99.90;;;;;;5051664;28;20076;-68
2022/05/24 02:54:32;;;;;;;14.15;8.38;;;13.30;99.90;;;;;;5051655;28;20499;-68
2022/05/24 02:57:01;;;;;;;12.10;8.95;;;13.30;99.90;;;;;;5050399;28;20094;-68
2022/05/24 02:59:27;;;;;;;10.95;9.13;;;13.40;99.90;;;;;;5051700;28;20123;-68
2022/05/24 03:01:52;;;;;;;19.90;10.52;;;13.30;99.90;;;;;;5051160;28;20526;-68
2022/05/24 03:04:18;;;;;;;13.20;9.80;;;13.40;99.90;;;;;;5051835;28;20044;-68
2022/05/24 03:09:36;;;;;;;13.30;10.73;;;13.40;99.90;;;;;;5051592;28;20128;-68
2022/05/24 03:14:53;;;;;;;20.15;12.13;;;13.40;99.90;;;;;;5051643;28;20045;-69
2022/05/24 03:17:19;;;;;;;13.65;10.93;;;13.50;99.90;;;;;;5051443;28;20132;-69
2022/05/24 03:19:45;;;;;;;22.23;13.52;;;13.50;99.90;;;;;;5051587;28;20491;-68
2022/05/24 03:22:11;;;;;;;16.35;12.63;;;13.50;99.90;;;;;;5049847;28;20071;-68
2022/05/24 03:24:37;;;;;;;21.83;13.90;;;13.50;99.90;;;;;;5051179;28;20472;-68
2022/05/24 03:27:07;;;;;;;19.05;13.85;;;13.60;99.90;;;;;;5051223;28;20086;-68
2022/05/24 03:29:34;;;;;;;22.55;15.63;;;13.60;99.90;;;;;;5050154;28;20052;-68
2022/05/24 03:32:00;;;;;;;23.80;16.73;;;13.60;99.90;;;;;;5050078;28;20093;-68
2022/05/24 03:34:26;;;;;;;25.05;18.23;;;13.60;99.90;;;;;;5051437;28;20049;-69
2022/05/24 03:36:52;;;;;;;27.63;18.38;;;13.60;99.90;;;;;;5051376;28;20055;-69
2022/05/24 03:39:17;;;;;;;26.70;17.55;;;13.60;99.90;;;;;;5050094;28;20120;-69
2022/05/24 03:41:45;;;;;;;25.02;18.30;;;13.60;99.90;;;;;;5050828;28;20405;-69
2022/05/24 03:44:11;;;;;;;28.00;19.23;;;13.60;99.90;;;;;;5050226;28;20079;-68
2022/05/24 03:46:37;;;;;;;27.58;19.70;;;13.70;99.90;;;;;;5051815;28;20407;-68
2022/05/24 03:49:04;;;;;;;28.17;19.88;;;13.70;99.90;;;;;;5054050;28;20577;-68
2022/05/24 03:51:29;;;;;;;34.72;21.60;;;13.70;99.90;;;;;;5054761;28;20060;-68
2022/05/24 03:53:55;;;;;;;32.53;21.10;;;13.70;99.90;;;;;;5053656;28;20418;-68
2022/05/24 03:56:21;;;;;;;32.72;21.35;;;13.70;99.90;;;;;;5055077;28;20079;-68
2022/05/24 03:58:46;;;;;;;33.90;21.77;;;13.70;99.90;;;;;;5055026;28;20570;-68
2022/05/24 04:01:12;;;;;;;37.55;25.20;;;13.70;99.90;;;;;;5053204;28;20049;-69
2022/05/24 04:03:37;;;;;;;39.20;25.83;;;13.70;99.90;;;;;;5054850;28;20051;-68
2022/05/24 04:06:03;;;;;;;42.00;26.73;;;13.70;99.90;;;;;;5054775;28;20456;-68
2022/05/24 04:08:29;;;;;;;42.63;27.42;;;13.70;99.90;;;;;;5054615;28;20528;-68
2022/05/24 04:11:04;;;;;;;45.17;29.42;;;13.70;99.90;;;;;;5054538;28;20070;-70
2022/05/24 04:13:30;;;;;;;41.63;26.23;;;13.70;99.90;;;;;;5053817;28;20040;-69
2022/05/24 04:15:56;;;;;;;46.08;29.52;;;13.70;99.90;;;;;;5053287;28;20052;-69
2022/05/24 04:18:22;;;;;;;39.00;27.40;;;13.70;99.90;;;;;;5054635;28;20045;-69
2022/05/24 04:20:48;;;;;;;46.40;29.42;;;13.70;99.90;;;;;;5054194;28;20037;-69
2022/05/24 04:23:14;;;;;;;47.40;31.30;;;13.70;99.90;;;;;;5054249;28;20048;-69
2022/05/24 04:25:40;;;;;;;47.65;30.70;;;13.70;99.90;;;;;;5054237;28;20044;-69
2022/05/24 04:28:06;;;;;;;40.83;28.15;;;13.80;99.90;;;;;;5054441;28;20041;-69
2022/05/24 04:30:31;;;;;;;50.35;29.83;;;13.70;99.90;;;;;;5052711;28;20380;-69
2022/05/24 04:32:57;;;;;;;41.83;27.15;;;13.80;99.90;;;;;;5054308;28;20399;-69
2022/05/24 04:35:23;;;;;;;43.50;27.27;;;13.80;99.90;;;;;;5052812;28;20052;-69
2022/05/24 04:37:48;;;;;;;45.03;27.27;;;13.80;99.90;;;;;;5036415;28;20048;-69
2022/05/24 04:40:14;;;;;;;40.80;26.80;;;13.80;99.90;;;;;;5053813;28;20123;-69
2022/05/24 04:42:40;;;;;;;41.50;27.63;;;13.80;99.90;;;;;;5054187;28;20060;-69
2022/05/24 04:45:11;;;;;;;47.55;27.77;;;13.80;99.90;;;;;;5052837;28;20540;-68
2022/05/24 04:47:36;;;;;;;42.00;27.63;;;13.90;99.90;;;;;;5053855;28;20463;-69
2022/05/24 04:50:09;;;;;;;41.05;28.42;;;13.80;99.90;;;;;;5052425;28;20257;-69
2022/05/24 04:52:37;;;;;;;46.08;27.75;;;13.90;99.90;;;;;;5054083;28;20406;-69
2022/05/24 04:55:08;;;;;;;39.53;27.50;;;13.90;99.90;;;;;;5053945;28;20051;-69
2022/05/24 04:57:34;;;;;;;41.47;26.75;;;13.90;99.90;;;;;;5053544;28;20167;-69
2022/05/24 05:00:00;;;;;;;40.33;24.73;;;14.00;99.90;;;;;;5052140;28;20514;-69
2022/05/24 05:02:26;;;;;;;36.05;25.17;;;14.00;99.90;;;;;;5052507;28;20403;-69
2022/05/24 05:04:52;;;;;;;37.90;24.38;;;14.00;99.90;;;;;;5053540;28;20495;-69
2022/05/24 05:07:21;;;;;;;39.08;25.40;;;14.00;99.90;;;;;;5053685;28;20170;-69
2022/05/24 05:09:49;;;;;;;37.58;25.55;;;14.10;99.90;;;;;;5053659;28;20068;-69
2022/05/24 05:12:16;;;;;;;36.25;24.95;;;14.00;99.90;;;;;;5053252;28;20049;-69
2022/05/24 05:14:41;;;;;;;35.63;24.85;;;14.00;99.90;;;;;;5052526;28;20049;-69
2022/05/24 05:17:07;;;;;;;39.05;24.63;;;14.10;99.90;;;;;;5053313;28;20530;-68
2022/05/24 05:19:32;;;;;;;43.70;27.17;;;14.10;99.90;;;;;;5053446;28;20052;-68
2022/05/24 05:21:59;;;;;;;39.15;25.80;;;14.10;99.90;;;;;;5053174;28;20449;-69
2022/05/24 05:24:24;;;;;;;40.55;27.75;;;14.20;99.90;;;;;;5052008;28;20041;-69
2022/05/24 05:26:50;;;;;;;36.28;23.40;;;14.10;99.90;;;;;;5053233;28;20091;-69
2022/05/24 05:29:16;;;;;;;35.40;25.00;;;14.20;99.90;;;;;;5052156;28;20072;-69
2022/05/24 05:31:41;;;;;;;31.83;22.42;;;14.20;99.90;;;;;;5051777;28;20515;-69
2022/05/24 05:34:07;;;;;;;35.95;24.05;;;14.20;99.90;;;;;;5052991;28;20072;-69
2022/05/24 05:36:34;;;;;;;30.50;21.58;;;14.20;99.90;;;;;;5051577;28;20387;-69
2022/05/24 05:38:59;;;;;;;30.27;21.23;;;14.20;99.90;;;;;;5053194;28;20430;-69
2022/05/24 05:41:30;;;;;;;29.73;21.25;;;14.20;99.90;;;;;;5051334;28;20128;-69
2022/05/24 05:43:57;;;;;;;30.10;20.58;;;14.10;99.90;;;;;;5051874;28;20383;-69
2022/05/24 05:46:23;;;;;;;30.20;22.10;;;14.20;99.90;;;;;;5052426;28;20033;-70
2022/05/24 05:48:49;;;;;;;27.13;19.02;;;14.10;99.90;;;;;;5053009;28;20053;-69
2022/05/24 05:51:17;;;;;;;35.38;23.85;;;14.10;99.90;;;;;;5051205;28;20037;-70
2022/05/24 05:53:43;;;;;;;32.15;21.27;;;14.10;99.90;;;;;;5052815;28;20093;-70
2022/05/24 05:56:18;;;;;;;38.20;23.50;;;14.00;99.90;;;;;;5051638;28;20045;-69
2022/05/24 05:58:44;;;;;;;32.05;20.63;;;14.10;99.90;;;;;;5051602;28;20052;-69
2022/05/24 06:01:18;;;;;;;30.92;21.38;;;14.10;99.90;;;;;;5052107;28;20089;-69
2022/05/24 06:03:44;;;;;;;33.03;20.70;;;14.20;99.90;;;;;;5051463;28;20033;-69
2022/05/24 06:06:15;;;;;;;29.30;21.83;;;14.20;99.90;;;;;;5052469;28;20033;-69
2022/05/24 06:08:40;;;;;;;32.15;22.50;;;14.20;99.90;;;;;;5051220;28;20112;-69
2022/05/24 06:11:06;;;;;;;36.72;23.58;;;14.20;99.90;;;;;;5051523;28;20435;-69
2022/05/24 06:13:31;;;;;;;38.28;24.33;;;14.20;99.90;;;;;;5052237;28;20055;-70
2022/05/24 06:15:58;;;;;;;35.05;21.30;;;14.20;99.90;;;;;;5052412;28;20434;-69
2022/05/24 06:18:23;;;;;;;32.85;21.50;;;14.30;99.90;;;;;;5052339;28;20402;-70
2022/05/24 06:20:49;;;;;;;37.72;22.75;;;14.40;99.90;;;;;;5051859;28;20036;-69
2022/05/24 06:23:15;;;;;;;26.65;20.33;;;14.30;99.90;;;;;;5052166;28;20119;-69
2022/05/24 06:25:42;;;;;;;42.22;20.42;;;14.50;99.90;;;;;;5050793;28;20376;-70
2022/05/24 06:28:14;;;;;;;35.95;21.25;;;14.40;99.90;;;;;;5051916;28;20095;-70
2022/05/24 06:30:40;;;;;;;33.00;20.33;;;14.40;99.90;;;;;;5050581;28;20049;-70
2022/05/24 06:33:06;;;;;;;29.45;20.88;;;14.40;99.90;;;;;;5052110;28;20415;-70
2022/05/24 06:35:32;;;;;;;34.45;19.98;;;14.30;99.90;;;;;;5050590;28;20049;-70
2022/05/24 06:37:57;;;;;;;28.17;18.92;;;14.30;99.90;;;;;;5051950;28;20384;-70
2022/05/24 06:40:23;;;;;;;28.75;19.38;;;14.30;99.90;;;;;;5050294;28;20514;-70
2022/05/24 06:42:48;;;;;;;31.02;18.92;;;14.30;99.90;;;;;;5051680;28;20063;-70
2022/05/24 06:45:14;;;;;;;32.08;19.27;;;14.20;99.90;;;;;;5051978;28;20029;-69
2022/05/24 06:47:40;;;;;;;28.40;20.08;;;14.30;99.90;;;;;;5051883;28;20045;-69
2022/05/24 06:50:07;;;;;;;28.23;17.50;;;14.30;99.90;;;;;;5050086;28;20052;-70
2022/05/24 06:52:33;;;;;;;23.38;15.93;;;14.40;99.90;;;;;;5051711;28;20056;-70
2022/05/24 06:54:58;;;;;;;25.90;17.20;;;14.50;99.90;;;;;;5050364;28;20045;-69
2022/05/24 06:57:24;;;;;;;29.60;16.13;;;14.60;99.90;;;;;;5051505;28;20045;-69
2022/05/24 07:02:34;;;;;;;26.90;16.55;;;14.60;99.90;;;;;;5051483;28;20503;-70
2022/05/24 07:05:10;;;;;;;22.92;15.10;;;14.70;99.90;;;;;;5051695;28;20037;-69
2022/05/24 07:07:36;;;;;;;22.73;14.60;;;14.80;99.90;;;;;;5050140;28;20045;-70
2022/05/24 07:10:04;;;;;;;22.40;15.18;;;14.90;99.90;;;;;;5050327;28;20044;-69
2022/05/24 07:12:30;;;;;;;22.33;14.95;;;14.90;99.90;;;;;;5051314;28;20048;-70
2022/05/24 07:14:57;;;;;;;23.45;15.13;;;14.90;99.90;;;;;;5051595;28;20041;-70
2022/05/24 07:17:22;;;;;;;22.73;13.65;;;14.90;99.90;;;;;;5051214;28;20150;-70
2022/05/24 07:19:49;;;;;;;19.98;13.82;;;14.90;99.90;;;;;;5051445;28;20037;-70
2022/05/24 07:22:15;;;;;;;25.15;14.75;;;14.80;99.90;;;;;;5054410;28;20045;-70
2022/05/24 07:24:41;;;;;;;23.23;12.73;;;14.70;99.90;;;;;;5055764;28;20040;-69
2022/05/24 07:27:11;;;;;;;21.38;13.80;;;14.70;99.90;;;;;;5055450;28;20123;-70
2022/05/24 07:29:37;;;;;;;24.77;13.63;;;14.80;99.90;;;;;;5037876;28;20083;-70
2022/05/24 07:32:06;;;;;;;18.65;12.75;;;14.80;99.90;;;;;;5055198;28;20095;-69
2022/05/24 07:34:34;;;;;;;19.00;13.80;;;14.80;99.90;;;;;;5055306;28;20553;-70
2022/05/24 07:37:04;;;;;;;24.90;14.70;;;14.70;99.90;;;;;;5053319;28;20072;-69
2022/05/24 07:39:31;;;;;;;23.60;14.82;;;14.40;99.90;;;;;;5040024;28;20064;-68
2022/05/24 07:47:15;;;;;;;20.73;12.88;;;14.10;99.90;;;;;;5054876;28;20044;-68
2022/05/24 07:49:41;;;;;;;27.88;16.08;;;14.10;99.90;;;;;;5055231;28;20040;-69
2022/05/24 07:52:07;;;;;;;23.67;14.73;;;14.00;99.90;;;;;;5054890;28;20384;-68
2022/05/24 07:54:33;;;;;;;32.95;15.55;;;14.10;99.90;;;;;;5055047;28;20040;-68
2022/05/24 07:57:00;;;;;;;27.20;16.08;;;14.10;99.90;;;;;;5054960;28;20418;-68
2022/05/24 07:59:25;;;;;;;20.60;13.52;;;14.10;99.90;;;;;;5054902;28;20041;-68
2022/05/24 08:01:51;;;;;;;20.63;13.98;;;14.20;99.90;;;;;;5054395;28;20517;-69
2022/05/24 08:04:18;;;;;;;31.33;14.32;;;14.30;99.90;;;;;;5055030;28;20036;-68
2022/05/24 08:06:43;;;;;;;22.02;14.50;;;14.30;99.90;;;;;;5053641;28;20041;-68
2022/05/24 08:09:09;;;;;;;24.67;15.32;;;14.40;99.90;;;;;;5054774;28;20043;-69
2022/05/24 08:11:35;;;;;;;21.17;14.07;;;14.50;99.90;;;;;;5054475;28;20123;-69
2022/05/24 08:14:02;;;;;;;19.17;13.57;;;14.50;99.90;;;;;;5054606;28;20115;-69
2022/05/24 08:16:30;;;;;;;24.75;14.05;;;14.50;99.90;;;;;;5054356;28;20103;-69
2022/05/24 08:18:58;;;;;;;18.35;13.07;;;14.50;99.90;;;;;;5053114;28;20048;-69
2022/05/24 08:21:27;;;;;;;20.05;13.38;;;14.70;99.90;;;;;;5053990;28;20415;-69
2022/05/24 08:23:52;;;;;;;18.75;12.75;;;14.60;99.90;;;;;;5053152;28;20683;-69
2022/05/24 08:26:18;;;;;;;23.38;13.73;;;14.70;99.90;;;;;;5054295;28;20041;-69
2022/05/24 08:28:47;;;;;;;20.48;14.40;;;14.70;99.90;;;;;;5054345;28;20037;-69
2022/05/24 08:31:14;;;;;;;21.92;13.05;;;14.70;99.90;;;;;;5053432;28;20895;-69
2022/05/24 08:33:40;;;;;;;16.88;12.07;;;14.90;99.90;;;;;;5053627;28;20387;-69
2022/05/24 08:36:06;;;;;;;19.92;12.23;;;15.00;99.90;;;;;;5052799;28;20045;-69
2022/05/24 08:38:32;;;;;;;19.08;11.93;;;15.00;99.90;;;;;;5054070;28;20509;-69
2022/05/24 08:41:04;;;;;;;21.23;12.68;;;14.90;99.90;;;;;;5053858;28;20120;-69
2022/05/24 08:43:48;;;;;;;19.85;12.68;;;15.10;99.90;;;;;;5053862;28;20045;-69
2022/05/24 08:49:22;;;;;;;17.48;11.98;;;15.30;99.90;;;;;;5053934;28;20041;-69
2022/05/24 08:51:51;;;;;;;17.80;11.52;;;15.70;99.90;;;;;;5052547;28;20051;-69
2022/05/24 08:54:20;;;;;;;17.63;12.05;;;16.30;99.90;;;;;;5053908;28;20045;-69
2022/05/24 08:56:48;;;;;;;18.30;10.65;;;16.40;99.90;;;;;;5053831;28;20037;-69
2022/05/24 08:59:34;;;;;;;16.90;11.50;;;16.50;99.90;;;;;;5052300;28;20045;-68
2022/05/24 09:02:00;;;;;;;19.52;11.00;;;16.30;99.90;;;;;;5053308;28;20037;-69
2022/05/24 09:04:27;;;;;;;17.95;9.98;;;16.10;99.90;;;;;;5053372;28;20033;-69
2022/05/24 09:06:55;;;;;;;13.52;10.63;;;16.00;99.90;;;;;;5053586;28;20055;-69
2022/05/24 09:09:33;;;;;;;14.20;9.18;;;15.80;99.90;;;;;;5053376;28;20430;-69
2022/05/24 09:12:35;;;;;;;15.07;10.23;;;16.20;99.90;;;;;;5053269;28;20033;-69
2022/05/24 09:15:07;;;;;;;16.42;10.02;;;16.30;99.90;;;;;;5053484;28;20044;-69
2022/05/24 09:17:46;;;;;;;21.13;10.27;;;16.30;99.90;;;;;;5051345;28;20037;-69
2022/05/24 09:20:25;;;;;;;19.08;10.38;;;16.20;99.90;;;;;;5052273;28;20044;-69
2022/05/24 09:23:24;;;;;;;17.85;10.57;;;15.90;99.90;;;;;;5051074;28;20494;-69
2022/05/24 09:25:57;;;;;;;15.30;10.27;;;15.30;99.90;;;;;;5040008;28;20409;-69
2022/05/24 09:28:55;;;;;;;18.27;11.10;;;15.00;99.90;;;;;;5053367;28;20037;-69
2022/05/24 09:31:42;;;;;;;15.20;10.02;;;14.90;99.90;;;;;;5052638;28;20040;-69
2022/05/24 09:34:16;;;;;;;17.58;11.02;;;14.90;99.90;;;;;;5053221;28;20029;-69
2022/05/24 09:36:54;;;;;;;13.45;9.55;;;14.80;99.90;;;;;;5052886;28;20541;-69
2022/05/24 09:39:41;;;;;;;19.88;10.20;;;14.80;99.90;;;;;;5051751;28;20041;-69
2022/05/24 09:42:14;;;;;;;12.00;8.77;;;15.00;99.90;;;;;;5052411;28;20037;-69
2022/05/24 09:44:49;;;;;;;3.38;1.67;;;15.00;99.90;;;;;;5052013;28;20128;-69
2022/05/24 09:47:25;;;;;;;3.75;1.25;;;14.60;99.90;;;;;;5034894;28;20184;-69
2022/05/24 09:49:51;;;;;;;4.13;1.80;;;14.30;99.90;;;;;;5052608;28;20128;-69
2022/05/24 09:52:16;;;;;;;5.45;1.33;;;14.10;99.90;;;;;;5052336;28;20151;-69
2022/05/24 09:54:56;;;;;;;2.88;1.30;;;14.00;99.90;;;;;;5052893;28;20036;-69
2022/05/24 09:57:25;;;;;;;2.58;1.70;;;13.80;99.90;;;;;;5051261;28;20049;-69
2022/05/24 10:00:12;;;;;;;1.42;0.80;;;13.70;99.90;;;;;;5052606;28;20045;-68
2022/05/24 10:02:39;;;;;;;4.97;1.40;;;13.40;99.90;;;;;;5037704;28;20049;-68
2022/05/24 10:05:25;;;;;;;2.88;1.27;;;13.40;99.90;;;;;;5050034;28;20048;-68
2022/05/24 10:08:04;;;;;;;3.80;0.88;;;13.30;99.90;;;;;;5048554;28;20395;-68
2022/05/24 10:10:33;;;;;;;2.95;1.15;;;13.30;99.90;;;;;;5050221;28;20040;-68
2022/05/24 10:13:05;;;;;;;3.88;1.48;;;13.30;99.90;;;;;;5051795;28;20126;-69
2022/05/24 10:16:05;;;;;;;3.03;1.38;;;13.40;99.90;;;;;;5052337;28;20044;-68
2022/05/24 10:18:47;;;;;;;4.80;2.20;;;13.50;99.90;;;;;;5046630;28;20423;-68
2022/05/24 10:21:22;;;;;;;2.83;2.30;;;12.80;99.90;;;;;;5045591;28;20036;-68
2022/05/24 10:24:06;;;;;;;5.28;2.95;;;12.50;99.90;;;;;;5046027;28;20056;-69
2022/05/24 10:26:51;;;;;;;4.75;3.00;;;12.80;99.90;;;;;;5051762;28;20552;-68
2022/05/24 10:29:51;;;;;;;4.35;3.10;;;12.80;99.90;;;;;;5050065;28;20037;-68
2022/05/24 10:38:45;;;;;;;4.95;3.70;;;13.30;99.90;;;;;;5051941;28;20127;-69
2022/05/24 10:41:50;;;;;;;6.82;4.47;;;13.30;99.90;;;;;;5051506;28;20047;-69
2022/05/24 10:44:23;;;;;;;7.10;4.40;;;13.50;99.90;;;;;;5033858;28;20084;-69
2022/05/24 10:47:22;;;;;;;7.67;4.70;;;13.40;99.90;;;;;;5051728;28;20495;-69
2022/05/24 10:50:20;;;;;;;4.85;2.45;;;13.20;99.90;;;;;;5050475;28;20097;-69
2022/05/24 10:52:55;;;;;;;7.88;1.55;;;12.90;99.90;;;;;;5046576;28;20052;-69
2022/05/24 10:55:31;;;;;;;8.32;1.55;;;12.50;99.90;;;;;;5048726;28;20033;-69
2022/05/24 10:58:01;;;;;;;1.40;0.73;;;12.20;99.90;;;;;;5049757;28;20043;-69
2022/05/24 11:00:40;;;;;;;3.22;0.88;;;12.00;99.90;;;;;;5049150;28;20037;-69
2022/05/24 11:03:10;;;;;;;2.75;0.85;;;12.00;99.90;;;;;;5050595;28;20086;-68
2022/05/24 11:05:37;;;;;;;2.63;0.60;;;11.90;99.90;;;;;;5051549;28;20051;-69
2022/05/24 11:08:18;;;;;;;1.85;1.00;;;11.90;99.90;;;;;;5049999;28;20579;-69
2022/05/24 11:10:48;;;;;;;4.38;1.20;;;11.90;99.90;;;;;;5051060;28;20043;-68
2022/05/24 11:13:22;;;;;;;1.15;0.80;;;11.90;99.90;;;;;;5051264;28;20049;-69
2022/05/24 11:15:54;;;;;;;2.03;1.10;;;12.20;99.90;;;;;;5051605;28;20450;-69
2022/05/24 11:18:23;;;;;;;2.08;1.02;;;12.50;99.90;;;;;;5051464;28;20033;-69
2022/05/24 11:21:10;;;;;;;3.25;1.23;;;12.50;99.90;;;;;;5051306;28;20119;-69
2022/05/24 11:23:45;;;;;;;4.75;1.88;;;12.50;99.90;;;;;;5033484;28;20116;-69
2022/05/24 11:26:25;;;;;;;5.70;2.95;;;12.70;99.90;;;;;;5051089;28;20041;-68
2022/05/24 11:28:55;;;;;;;3.75;1.88;;;13.00;99.90;;;;;;5050240;28;20090;-68
2022/05/24 11:31:21;;;;;;;3.85;1.88;;;13.20;99.90;;;;;;5048684;28;20033;-68
2022/05/24 11:33:48;;;;;;;5.80;2.13;;;13.30;99.90;;;;;;5051203;28;20039;-68
2022/05/24 11:36:36;;;;;;;3.85;2.40;;;13.30;99.90;;;;;;5050994;28;20499;-68
2022/05/24 11:39:16;;;;;;;5.05;2.78;;;13.20;99.90;;;;;;5051262;28;20521;-68
2022/05/24 11:41:41;;;;;;;5.07;3.33;;;13.20;99.90;;;;;;5049474;28;20045;-68
2022/05/24 11:44:30;;;;;;;4.85;4.30;;;13.20;99.90;;;;;;5050286;28;20041;-69
2022/05/24 11:46:56;;;;;;;6.13;3.92;;;13.50;99.90;;;;;;5051681;28;20095;-69
2022/05/24 11:49:21;;;;;;;7.70;3.70;;;13.80;99.90;;;;;;5051892;28;20037;-69
2022/05/24 11:51:49;;;;;;;7.75;5.15;;;13.90;99.90;;;;;;5051372;28;20134;-69
2022/05/24 11:54:19;;;;;;;3.83;2.92;;;14.00;99.90;;;;;;5051194;28;20041;-68
2022/05/24 11:57:00;;;;;;;3.42;2.70;;;14.10;99.90;;;;;;5051107;28;20120;-68
2022/05/24 11:59:41;;;;;;;3.40;2.45;;;14.20;99.90;;;;;;5051038;28;20043;-68
2022/05/24 12:02:23;;;;;;;6.10;2.63;;;14.30;99.90;;;;;;5050694;28;20538;-68
2022/05/24 12:07:55;;;;;;;4.70;2.20;;;14.00;99.90;;;;;;5051581;28;20049;-68
2022/05/24 12:10:20;;;;;;;6.25;2.03;;;13.80;99.90;;;;;;5054579;28;20065;-68
2022/05/24 12:12:55;;;;;;;4.30;2.20;;;13.90;99.90;;;;;;5054595;28;20036;-68
2022/05/24 12:15:35;;;;;;;3.33;1.58;;;14.10;99.90;;;;;;5053363;28;20060;-68
2022/05/24 12:18:00;;;;;;;2.22;1.63;;;14.20;99.90;;;;;;5054502;28;20041;-68
2022/05/24 12:20:27;;;;;;;1.75;1.10;;;14.10;99.90;;;;;;5054284;28;20592;-69
2022/05/24 12:23:08;;;;;;;6.80;2.00;;;13.90;99.90;;;;;;5054424;28;20132;-69
2022/05/24 12:25:59;;;;;;;3.17;1.70;;;14.00;99.90;;;;;;5054421;28;20045;-69
2022/05/24 12:28:52;;;;;;;2.15;1.67;;;14.20;99.90;;;;;;5053145;28;20033;-69
2022/05/24 12:31:18;;;;;;;2.45;1.85;;;14.60;99.90;;;;;;5054173;28;20032;-69
2022/05/24 12:34:01;;;;;;;3.58;1.60;;;14.70;99.90;;;;;;5053043;28;20128;-69
2022/05/24 12:36:39;;;;;;;1.92;1.05;;;14.70;99.90;;;;;;5054177;28;20033;-68
2022/05/24 12:39:08;;;;;;;3.88;1.17;;;14.40;99.90;;;;;;5054193;28;20048;-69
2022/05/24 12:41:42;;;;;;;3.42;1.55;;;14.30;99.90;;;;;;5053843;28;20049;-69
2022/05/24 12:44:22;;;;;;;4.00;0.88;;;14.00;99.90;;;;;;5052856;28;20040;-69
2022/05/24 12:46:55;;;;;;;2.15;0.60;;;14.20;99.90;;;;;;5054058;28;20116;-69
2022/05/24 12:49:24;;;;;;;3.57;0.90;;;14.00;99.90;;;;;;5053939;28;20044;-68
2022/05/24 12:52:02;;;;;;;4.90;0.88;;;14.00;99.90;;;;;;5052665;28;20319;-69
2022/05/24 12:54:34;;;;;;;2.03;1.20;;;13.80;99.90;;;;;;5053902;28;20041;-69
2022/05/24 12:57:04;;;;;;;2.40;1.10;;;13.50;99.90;;;;;;5053738;28;20482;-69
2022/05/24 12:59:37;;;;;;;3.22;1.40;;;13.40;99.90;;;;;;5052540;28;20045;-69
2022/05/24 13:02:27;;;;;;;3.35;1.50;;;13.30;99.90;;;;;;5052494;28;20080;-69
2022/05/24 13:05:11;;;;;;;3.17;1.00;;;13.30;99.90;;;;;;5053735;28;20047;-69
2022/05/24 13:07:45;;;;;;;5.15;1.38;;;13.30;99.90;;;;;;5052548;28;20041;-69
2022/05/24 13:10:20;;;;;;;2.70;1.88;;;13.60;99.90;;;;;;5053200;28;20067;-69
2022/05/24 13:12:54;;;;;;;6.10;1.23;;;13.80;99.90;;;;;;5053582;28;20045;-69
2022/05/24 13:15:24;;;;;;;4.43;1.30;;;14.00;99.90;;;;;;5053670;28;20124;-69
2022/05/24 13:17:55;;;;;;;4.85;1.25;;;14.20;99.90;;;;;;5053549;28;20053;-68
2022/05/24 13:20:20;;;;;;;4.00;1.48;;;14.70;99.90;;;;;;5053041;28;20056;-68
2022/05/24 13:22:54;;;;;;;2.40;1.27;;;15.00;99.90;;;;;;5053162;28;20037;-69
2022/05/24 13:25:48;;;;;;;3.75;1.20;;;15.40;99.90;;;;;;5053304;28;20402;-69
2022/05/24 13:28:51;;;;;;;3.50;1.20;;;15.30;99.90;;;;;;5045874;28;20053;-69